Time;durP1;ratioP1;P1;durP2;ratioP2;P2;SDS_P1;SDS_P2;PMS_P1;PMS_P2;Temp;Humidity;BMP_temperature;BMP_pressure;BME280_temperature;BME280_humidity;BME280_pressure;Samples;Min_cycle;Max_cycle;Signal;HPM_P1;HPM_P2
2023/02/28 00:01:51;;;;;;;7.05;4.30;;;2.10;97.60;;;;;;4972923;28;20031;-45
2023/02/28 00:04:37;;;;;;;5.65;3.90;;;2.00;97.80;;;;;;4971475;28;20026;-50
2023/02/28 00:07:23;;;;;;;5.55;3.90;;;2.00;97.80;;;;;;4972730;28;20066;-48
2023/02/28 00:10:11;;;;;;;5.05;4.07;;;2.10;97.90;;;;;;4972696;28;20113;-47
2023/02/28 00:13:05;;;;;;;7.00;3.92;;;2.00;97.70;;;;;;4971219;28;20026;-47
2023/02/28 00:16:13;;;;;;;5.13;3.92;;;2.00;97.80;;;;;;4972397;28;20117;-47
2023/02/28 00:18:59;;;;;;;7.60;4.32;;;2.00;97.90;;;;;;4970514;28;20033;-51
2023/02/28 00:21:44;;;;;;;6.68;4.07;;;2.00;97.90;;;;;;4972115;28;20070;-44
2023/02/28 00:24:30;;;;;;;6.38;4.35;;;1.90;97.90;;;;;;4964359;28;20035;-48
2023/02/28 00:27:17;;;;;;;5.65;4.32;;;2.00;98.10;;;;;;4971587;28;20054;-46
2023/02/28 00:30:03;;;;;;;5.90;4.40;;;2.00;98.10;;;;;;4972951;28;20467;-49
2023/02/28 00:32:50;;;;;;;7.78;4.88;;;2.00;98.00;;;;;;4972326;28;20145;-48
2023/02/28 00:35:36;;;;;;;6.15;4.63;;;2.00;98.00;;;;;;4971162;28;20511;-46
2023/02/28 00:38:22;;;;;;;7.55;4.25;;;2.10;98.10;;;;;;4970789;28;20463;-48
2023/02/28 00:41:09;;;;;;;5.95;4.30;;;2.20;98.10;;;;;;4972522;28;20578;-47
2023/02/28 00:43:55;;;;;;;5.93;4.28;;;2.20;98.10;;;;;;4971738;28;20022;-46
2023/02/28 00:46:40;;;;;;;6.85;4.00;;;2.20;98.00;;;;;;4970140;28;20499;-45
2023/02/28 00:49:27;;;;;;;6.82;4.38;;;2.10;97.90;;;;;;4972684;28;20035;-46
2023/02/28 00:52:13;;;;;;;5.75;3.95;;;2.10;98.20;;;;;;4972205;28;20023;-44
2023/02/28 00:54:59;;;;;;;6.78;4.25;;;2.10;98.00;;;;;;4971079;28;20041;-52
2023/02/28 00:57:45;;;;;;;6.28;4.30;;;2.00;98.30;;;;;;4970692;28;20026;-46
2023/02/28 01:00:31;;;;;;;6.55;4.07;;;2.00;98.20;;;;;;4969759;28;20067;-46
2023/02/28 01:03:18;;;;;;;5.90;4.22;;;1.90;98.30;;;;;;4961790;28;20023;-46
2023/02/28 01:06:04;;;;;;;7.50;4.60;;;1.90;98.50;;;;;;4972053;28;20035;-49
2023/02/28 01:08:51;;;;;;;6.85;4.65;;;1.80;98.60;;;;;;4973130;28;20082;-46
2023/02/28 01:11:37;;;;;;;5.65;4.25;;;1.80;98.50;;;;;;4972355;28;20042;-45
2023/02/28 01:14:23;;;;;;;6.70;4.45;;;1.80;98.70;;;;;;4972595;28;20031;-46
2023/02/28 01:17:09;;;;;;;6.50;4.65;;;1.80;98.90;;;;;;4971592;28;20504;-48
2023/02/28 01:19:55;;;;;;;7.75;4.35;;;1.80;98.80;;;;;;4973342;28;20038;-49
2023/02/28 01:22:41;;;;;;;6.38;4.50;;;1.90;98.80;;;;;;4974025;28;20066;-49
2023/02/28 01:25:27;;;;;;;6.57;4.53;;;1.90;98.80;;;;;;4971883;28;20166;-46
2023/02/28 01:28:13;;;;;;;7.60;4.57;;;1.80;98.90;;;;;;4965605;28;20027;-53
2023/02/28 01:30:59;;;;;;;6.93;4.43;;;1.80;99.00;;;;;;4970492;28;20034;-52
2023/02/28 01:33:46;;;;;;;6.20;4.13;;;1.80;99.00;;;;;;4970253;28;21605;-52
2023/02/28 01:36:32;;;;;;;8.43;4.30;;;1.80;99.00;;;;;;4970084;28;20023;-48
2023/02/28 01:39:18;;;;;;;6.28;4.28;;;1.80;99.30;;;;;;4970169;28;20065;-50
2023/02/28 01:42:04;;;;;;;5.72;4.00;;;1.80;99.50;;;;;;4965894;28;20041;-46
2023/02/28 01:45:09;;;;;;;6.55;4.35;;;1.80;99.50;;;;;;4972303;28;20027;-47
2023/02/28 01:48:03;;;;;;;5.95;4.30;;;1.90;99.70;;;;;;4973561;28;20034;-45
2023/02/28 01:50:49;;;;;;;5.65;4.03;;;1.80;99.70;;;;;;4966479;28;20113;-45
2023/02/28 01:53:43;;;;;;;5.93;4.10;;;1.80;99.80;;;;;;4966537;28;20089;-56
2023/02/28 01:56:35;;;;;;;7.65;4.35;;;1.70;99.90;;;;;;4972610;28;20077;-47
2023/02/28 01:59:37;;;;;;;7.03;4.43;;;1.80;99.80;;;;;;4971576;28;20038;-45
2023/02/28 02:02:24;;;;;;;7.45;5.15;;;1.70;99.90;;;;;;4972400;28;20027;-48
2023/02/28 02:05:23;;;;;;;5.88;4.47;;;1.60;99.90;;;;;;4970622;28;20035;-50
2023/02/28 02:08:12;;;;;;;5.07;3.58;;;1.70;99.90;;;;;;4971030;28;20046;-46
2023/02/28 02:11:02;;;;;;;8.27;4.07;;;1.60;99.90;;;;;;4971769;28;20500;-45
2023/02/28 02:14:14;;;;;;;7.07;4.22;;;1.60;99.90;;;;;;4969602;28;20563;-47
2023/02/28 02:17:21;;;;;;;5.68;3.88;;;1.60;99.90;;;;;;4972174;28;20380;-47
2023/02/28 02:20:37;;;;;;;6.45;4.10;;;1.70;99.90;;;;;;4970718;28;20499;-47
2023/02/28 02:23:41;;;;;;;4.18;3.53;;;1.70;99.90;;;;;;4971171;28;20536;-49
2023/02/28 02:27:02;;;;;;;5.63;3.67;;;1.70;99.90;;;;;;4969438;28;20203;-47
2023/02/28 02:30:19;;;;;;;6.13;4.32;;;1.70;99.90;;;;;;4969949;28;20143;-49
2023/02/28 02:33:57;;;;;;;8.45;4.40;;;1.70;99.90;;;;;;4961134;28;20041;-52
2023/02/28 02:36:58;;;;;;;6.32;4.22;;;1.60;99.90;;;;;;4957064;28;20538;-53
2023/02/28 02:39:56;;;;;;;7.95;4.30;;;1.60;99.90;;;;;;4971227;28;20035;-53
2023/02/28 02:42:58;;;;;;;7.07;3.97;;;1.60;99.90;;;;;;4977402;28;20101;-54
2023/02/28 02:46:04;;;;;;;7.07;4.40;;;1.60;99.90;;;;;;4974677;28;20383;-50
2023/02/28 02:48:51;;;;;;;5.43;3.95;;;1.60;99.90;;;;;;4977643;28;20026;-49
2023/02/28 02:51:40;;;;;;;6.30;3.95;;;1.60;99.90;;;;;;4977457;28;20461;-51
2023/02/28 02:54:35;;;;;;;6.72;4.00;;;1.70;99.90;;;;;;4974664;28;20035;-51
2023/02/28 02:57:31;;;;;;;7.50;3.70;;;1.70;99.90;;;;;;4977117;28;20023;-49
2023/02/28 03:00:22;;;;;;;7.25;4.15;;;1.60;99.90;;;;;;4977005;28;20547;-50
2023/02/28 03:03:10;;;;;;;6.13;4.28;;;1.60;99.90;;;;;;4982583;28;20027;-51
2023/02/28 03:05:58;;;;;;;6.78;4.28;;;1.60;99.90;;;;;;4976289;28;20077;-52
2023/02/28 03:08:44;;;;;;;5.03;3.85;;;1.60;99.90;;;;;;4974442;28;20114;-50
2023/02/28 03:11:31;;;;;;;6.05;4.15;;;1.70;99.90;;;;;;4973340;28;20035;-48
2023/02/28 03:14:51;;;;;;;8.10;4.15;;;1.70;99.90;;;;;;4973219;28;20488;-53
2023/02/28 03:17:50;;;;;;;6.82;3.95;;;1.70;99.90;;;;;;4975993;28;20035;-51
2023/02/28 03:20:54;;;;;;;6.20;4.25;;;1.70;99.90;;;;;;4976671;28;20031;-51
2023/02/28 03:24:02;;;;;;;7.35;4.38;;;1.80;99.90;;;;;;4966127;28;20447;-50
2023/02/28 03:26:55;;;;;;;10.93;4.97;;;1.80;99.90;;;;;;4973587;28;20110;-53
2023/02/28 03:29:56;;;;;;;9.23;4.07;;;1.80;99.90;;;;;;4975976;28;20019;-51
2023/02/28 03:33:04;;;;;;;7.43;4.70;;;1.80;99.90;;;;;;4975374;28;20395;-52
2023/02/28 03:36:06;;;;;;;5.97;4.18;;;1.70;99.90;;;;;;4976288;28;20030;-55
2023/02/28 03:39:02;;;;;;;8.02;4.57;;;1.70;99.90;;;;;;4972255;28;20034;-56
2023/02/28 03:42:05;;;;;;;8.38;4.78;;;1.70;99.90;;;;;;4974958;28;20023;-53
2023/02/28 03:44:55;;;;;;;7.32;4.30;;;1.60;99.90;;;;;;4974729;28;20045;-54
2023/02/28 03:47:54;;;;;;;7.57;4.03;;;1.60;99.90;;;;;;4974592;28;20428;-55
2023/02/28 03:50:42;;;;;;;7.40;4.63;;;1.60;99.90;;;;;;4975812;28;20093;-54
2023/02/28 03:53:38;;;;;;;6.22;3.95;;;1.60;99.90;;;;;;4975117;28;20041;-50
2023/02/28 03:56:37;;;;;;;8.98;4.22;;;1.60;99.90;;;;;;4974646;28;20031;-52
2023/02/28 03:59:33;;;;;;;5.55;3.88;;;1.60;99.90;;;;;;4977371;28;20027;-50
2023/02/28 04:02:19;;;;;;;6.90;4.15;;;1.50;99.90;;;;;;4975955;28;20026;-55
2023/02/28 04:05:07;;;;;;;10.70;4.90;;;1.60;99.90;;;;;;4973460;28;20117;-55
2023/02/28 04:07:53;;;;;;;9.13;5.15;;;1.60;99.90;;;;;;4976016;28;20023;-52
2023/02/28 04:10:41;;;;;;;9.48;4.80;;;1.60;99.90;;;;;;4976235;28;20097;-51
2023/02/28 04:13:26;;;;;;;6.18;4.60;;;1.60;99.90;;;;;;4970952;28;20404;-49
2023/02/28 04:16:12;;;;;;;9.00;4.90;;;1.60;99.90;;;;;;4974901;28;20396;-53
2023/02/28 04:19:01;;;;;;;5.82;4.50;;;1.60;99.90;;;;;;4976012;28;20062;-53
2023/02/28 04:21:50;;;;;;;5.65;4.28;;;1.60;99.90;;;;;;4975011;28;20106;-51
2023/02/28 04:24:36;;;;;;;6.53;4.60;;;1.60;99.90;;;;;;4975230;28;20120;-52
2023/02/28 04:27:22;;;;;;;5.53;4.18;;;1.50;99.90;;;;;;4975222;28;20031;-49
2023/02/28 04:30:08;;;;;;;5.80;4.05;;;1.50;99.90;;;;;;4974767;28;20053;-51
2023/02/28 04:32:54;;;;;;;6.10;4.20;;;1.50;99.90;;;;;;4975002;28;20507;-51
2023/02/28 04:35:40;;;;;;;6.70;4.35;;;1.50;99.90;;;;;;4974942;28;20089;-53
2023/02/28 04:38:26;;;;;;;8.35;5.15;;;1.50;99.90;;;;;;4974085;28;20403;-48
2023/02/28 04:41:13;;;;;;;6.90;4.25;;;1.40;99.90;;;;;;4975682;28;20053;-50
2023/02/28 04:43:59;;;;;;;6.63;4.60;;;1.40;99.90;;;;;;4975577;28;20027;-50
2023/02/28 04:46:45;;;;;;;9.02;6.03;;;1.30;99.90;;;;;;4966674;28;20027;-51
2023/02/28 04:49:31;;;;;;;7.07;5.05;;;1.30;99.90;;;;;;4967497;28;20031;-49
2023/02/28 04:52:17;;;;;;;6.43;4.68;;;1.30;99.90;;;;;;4975830;28;20027;-54
2023/02/28 04:55:03;;;;;;;13.27;6.85;;;1.30;99.90;;;;;;4976277;28;20046;-54
2023/02/28 04:57:49;;;;;;;10.48;6.13;;;1.30;99.90;;;;;;4966469;28;20030;-53
2023/02/28 05:00:35;;;;;;;7.82;5.00;;;1.30;99.90;;;;;;4967241;28;20062;-51
2023/02/28 05:03:22;;;;;;;8.02;4.60;;;1.20;99.90;;;;;;4980892;28;20479;-53
2023/02/28 05:06:09;;;;;;;7.85;5.40;;;1.20;99.90;;;;;;4973171;28;20023;-50
2023/02/28 05:08:56;;;;;;;7.55;4.82;;;1.20;99.90;;;;;;4974459;28;20074;-52
2023/02/28 05:11:42;;;;;;;7.88;5.00;;;1.20;99.90;;;;;;4974718;28;20591;-52
2023/02/28 05:14:28;;;;;;;7.90;5.53;;;1.20;99.90;;;;;;4972951;28;20043;-51
2023/02/28 05:17:14;;;;;;;8.52;5.32;;;1.20;99.90;;;;;;4969843;28;20027;-53
2023/02/28 05:19:59;;;;;;;8.27;5.07;;;1.20;99.90;;;;;;4969702;28;20113;-53
2023/02/28 05:22:46;;;;;;;5.97;4.85;;;1.20;99.90;;;;;;4974590;28;20418;-51
2023/02/28 05:25:31;;;;;;;10.18;6.40;;;1.20;99.90;;;;;;4975111;28;20045;-52
2023/02/28 05:28:17;;;;;;;9.15;6.40;;;1.30;99.90;;;;;;4974133;28;20050;-53
2023/02/28 05:31:03;;;;;;;9.60;5.50;;;1.20;99.90;;;;;;4971347;28;20370;-53
2023/02/28 05:33:50;;;;;;;10.85;6.32;;;1.20;99.90;;;;;;4975317;28;20035;-52
2023/02/28 05:36:37;;;;;;;10.63;6.50;;;1.30;99.90;;;;;;4973180;28;20054;-51
2023/02/28 05:39:23;;;;;;;13.85;7.50;;;1.20;99.90;;;;;;4974135;28;20110;-52
2023/02/28 05:42:09;;;;;;;11.93;6.50;;;1.30;99.90;;;;;;4975165;28;20492;-51
2023/02/28 05:44:55;;;;;;;10.55;6.88;;;1.20;99.90;;;;;;4974479;28;20039;-51
2023/02/28 05:47:41;;;;;;;8.20;5.63;;;1.30;99.90;;;;;;4973429;28;20034;-51
2023/02/28 05:50:26;;;;;;;12.52;5.90;;;1.30;99.90;;;;;;4965454;28;20035;-52
2023/02/28 05:53:12;;;;;;;9.25;5.70;;;1.20;99.90;;;;;;4974043;28;20023;-51
2023/02/28 05:55:59;;;;;;;7.50;5.32;;;1.20;99.90;;;;;;4973237;28;20049;-54
2023/02/28 05:58:45;;;;;;;6.57;4.85;;;1.20;99.90;;;;;;4973801;28;20031;-50
2023/02/28 06:01:34;;;;;;;9.52;5.22;;;1.20;99.90;;;;;;4969705;28;20039;-51
2023/02/28 06:04:21;;;;;;;7.90;5.53;;;1.20;99.90;;;;;;4971768;28;20022;-54
2023/02/28 06:07:07;;;;;;;8.27;5.57;;;1.20;99.90;;;;;;4972266;28;20053;-51
2023/02/28 06:09:53;;;;;;;6.10;4.72;;;1.20;99.90;;;;;;4973235;28;20038;-50
2023/02/28 06:12:41;;;;;;;9.32;6.13;;;1.20;99.90;;;;;;4972024;28;20046;-51
2023/02/28 06:15:27;;;;;;;8.50;5.45;;;1.30;99.90;;;;;;4973758;28;20034;-54
2023/02/28 06:18:13;;;;;;;7.97;5.68;;;1.20;99.90;;;;;;4972995;28;20122;-51
2023/02/28 06:20:59;;;;;;;21.67;5.72;;;1.30;99.90;;;;;;4972705;28;20102;-54
2023/02/28 06:23:45;;;;;;;15.77;6.00;;;1.20;99.90;;;;;;4972805;28;20458;-53
2023/02/28 06:26:31;;;;;;;11.43;5.13;;;1.30;99.90;;;;;;4974327;28;20031;-53
2023/02/28 06:29:18;;;;;;;8.43;5.70;;;1.30;99.90;;;;;;4971348;28;20026;-54
2023/02/28 06:32:04;;;;;;;10.55;6.45;;;1.30;99.90;;;;;;4972808;28;20066;-55
2023/02/28 06:34:50;;;;;;;10.65;5.95;;;1.30;99.90;;;;;;4972095;28;20035;-58
2023/02/28 06:37:37;;;;;;;9.65;5.88;;;1.30;99.90;;;;;;4974275;28;20066;-52
2023/02/28 06:40:23;;;;;;;7.90;5.82;;;1.30;99.80;;;;;;4974665;28;20043;-53
2023/02/28 06:43:13;;;;;;;14.13;6.72;;;1.20;99.90;;;;;;4975050;28;20028;-53
2023/02/28 06:46:01;;;;;;;9.35;5.22;;;1.20;99.90;;;;;;4972519;28;20380;-53
2023/02/28 06:48:47;;;;;;;11.30;6.40;;;1.30;99.90;;;;;;4972802;28;20023;-52
2023/02/28 06:51:33;;;;;;;9.63;6.22;;;1.40;99.90;;;;;;4973300;28;20372;-52
2023/02/28 06:54:19;;;;;;;24.75;12.50;;;1.30;99.90;;;;;;4971906;28;20056;-51
2023/02/28 06:57:04;;;;;;;11.15;6.28;;;1.30;99.90;;;;;;4971691;28;20041;-52
2023/02/28 06:59:50;;;;;;;9.75;7.05;;;1.30;99.90;;;;;;4972866;28;20046;-52
2023/02/28 07:02:37;;;;;;;9.63;5.70;;;1.20;99.90;;;;;;4970719;28;20058;-52
2023/02/28 07:05:23;;;;;;;9.35;5.47;;;1.30;99.90;;;;;;4971394;28;20067;-48
2023/02/28 07:08:09;;;;;;;10.65;6.45;;;1.30;99.90;;;;;;4972489;28;20089;-60
2023/02/28 07:10:55;;;;;;;9.05;5.50;;;1.30;99.90;;;;;;4973982;28;20066;-55
2023/02/28 07:13:41;;;;;;;9.18;5.88;;;1.40;99.90;;;;;;4973184;28;20042;-50
2023/02/28 07:16:27;;;;;;;18.33;7.50;;;1.50;99.90;;;;;;4969937;28;20043;-50
2023/02/28 07:19:13;;;;;;;9.73;6.93;;;1.60;99.90;;;;;;4972688;28;20023;-51
2023/02/28 07:21:59;;;;;;;13.00;7.15;;;1.70;99.90;;;;;;4969499;28;20113;-53
2023/02/28 07:24:45;;;;;;;11.13;7.03;;;1.70;99.90;;;;;;4970291;28;20023;-45
2023/02/28 07:27:31;;;;;;;9.80;6.10;;;1.70;99.90;;;;;;4969967;28;20039;-50
2023/02/28 07:30:17;;;;;;;10.52;6.55;;;1.70;99.70;;;;;;4972215;28;20037;-53
2023/02/28 07:33:03;;;;;;;9.98;6.57;;;1.70;99.70;;;;;;4973197;28;20174;-48
2023/02/28 07:35:49;;;;;;;27.33;12.30;;;1.80;99.60;;;;;;4973052;28;20027;-48
2023/02/28 07:38:37;;;;;;;12.73;6.68;;;1.80;99.40;;;;;;4973734;28;20031;-48
2023/02/28 07:41:24;;;;;;;9.85;6.32;;;1.90;99.30;;;;;;4973443;28;20034;-48
2023/02/28 07:44:11;;;;;;;10.52;6.28;;;2.00;99.50;;;;;;4973880;28;20019;-50
2023/02/28 07:46:57;;;;;;;14.30;7.05;;;2.00;99.30;;;;;;4972442;28;20030;-49
2023/02/28 07:49:45;;;;;;;10.80;7.05;;;1.90;99.30;;;;;;4972566;28;20038;-50
2023/02/28 07:52:32;;;;;;;13.45;7.13;;;1.90;99.50;;;;;;4974797;28;20031;-47
2023/02/28 07:55:18;;;;;;;11.27;6.28;;;2.00;99.60;;;;;;4972845;28;20027;-47
2023/02/28 07:58:04;;;;;;;15.35;6.93;;;2.10;99.70;;;;;;4971793;28;20097;-51
2023/02/28 08:00:50;;;;;;;14.73;6.85;;;2.10;99.50;;;;;;4974070;28;20086;-47
2023/02/28 08:03:37;;;;;;;12.70;7.20;;;2.10;99.90;;;;;;4974887;28;20510;-50
2023/02/28 08:06:25;;;;;;;16.83;7.47;;;2.10;99.90;;;;;;4972254;28;20027;-50
2023/02/28 08:09:11;;;;;;;9.70;6.15;;;2.20;99.90;;;;;;4973853;28;20035;-47
2023/02/28 08:11:57;;;;;;;10.95;7.25;;;2.20;99.80;;;;;;4972313;28;20450;-49
2023/02/28 08:14:43;;;;;;;13.77;8.18;;;2.30;99.80;;;;;;4974192;28;20503;-48
2023/02/28 08:17:29;;;;;;;14.82;6.50;;;2.20;99.60;;;;;;4963420;28;20495;-52
2023/02/28 08:20:15;;;;;;;10.57;6.82;;;2.30;99.80;;;;;;4974762;28;20411;-50
2023/02/28 08:23:01;;;;;;;10.77;6.50;;;2.40;99.70;;;;;;4971003;28;20015;-53
2023/02/28 08:25:54;;;;;;;10.48;6.40;;;2.40;99.60;;;;;;4972216;28;20031;-49
2023/02/28 08:28:40;;;;;;;12.20;5.70;;;2.50;99.60;;;;;;4971972;28;20515;-51
2023/02/28 08:31:27;;;;;;;9.70;5.97;;;2.60;99.30;;;;;;4970434;28;20122;-50
2023/02/28 08:34:14;;;;;;;8.75;6.38;;;2.70;99.90;;;;;;4973954;28;20510;-51
2023/02/28 08:37:00;;;;;;;9.98;6.82;;;3.10;99.90;;;;;;4953893;28;20069;-51
2023/02/28 08:39:46;;;;;;;13.57;6.68;;;3.60;99.90;;;;;;4970089;28;20027;-52
2023/02/28 08:42:32;;;;;;;10.90;6.53;;;3.90;99.50;;;;;;4973409;28;20042;-54
2023/02/28 08:45:27;;;;;;;15.65;6.68;;;4.00;97.10;;;;;;4958127;28;20797;-57
2023/02/28 08:48:13;;;;;;;9.40;6.50;;;3.90;96.00;;;;;;4954016;28;20047;-47
2023/02/28 08:51:05;;;;;;;9.55;6.65;;;3.80;95.70;;;;;;4961622;28;20093;-50
2023/02/28 08:53:57;;;;;;;9.50;6.32;;;3.80;95.40;;;;;;4971318;28;20027;-50
2023/02/28 08:56:43;;;;;;;8.63;6.38;;;3.60;94.90;;;;;;4972023;28;20029;-51
2023/02/28 08:59:29;;;;;;;12.45;7.05;;;3.50;95.30;;;;;;4964831;28;20062;-45
2023/02/28 09:02:15;;;;;;;10.65;6.53;;;3.50;95.50;;;;;;4973186;28;20038;-49
2023/02/28 09:05:01;;;;;;;9.57;5.97;;;3.40;95.50;;;;;;4971704;28;20035;-47
2023/02/28 09:07:47;;;;;;;9.00;5.88;;;3.50;95.20;;;;;;4969638;28;20019;-48
2023/02/28 09:10:34;;;;;;;10.82;5.75;;;3.50;93.50;;;;;;4972922;28;20590;-45
2023/02/28 09:13:20;;;;;;;9.73;6.68;;;3.30;93.20;;;;;;4965330;28;20026;-47
2023/02/28 09:16:10;;;;;;;8.73;6.43;;;3.30;93.00;;;;;;4970714;28;20038;-48
2023/02/28 09:18:56;;;;;;;7.70;5.95;;;3.40;93.20;;;;;;4972347;28;20037;-46
2023/02/28 09:21:42;;;;;;;11.18;6.25;;;3.30;92.60;;;;;;4973240;28;20463;-47
2023/02/28 09:24:28;;;;;;;11.52;7.15;;;3.40;92.50;;;;;;4969551;28;20499;-49
2023/02/28 09:27:14;;;;;;;9.77;6.93;;;3.40;91.70;;;;;;4965820;28;20492;-47
2023/02/28 09:29:59;;;;;;;10.63;6.10;;;3.40;92.40;;;;;;4968091;28;20027;-46
2023/02/28 09:32:51;;;;;;;8.65;7.13;;;3.50;91.90;;;;;;4970885;28;20119;-49
2023/02/28 09:35:37;;;;;;;9.65;6.32;;;3.70;92.00;;;;;;4970601;28;20027;-51
2023/02/28 09:38:23;;;;;;;9.65;5.88;;;3.60;90.90;;;;;;4969927;28;20027;-52
2023/02/28 09:41:18;;;;;;;8.98;5.80;;;3.60;90.30;;;;;;4970263;28;20420;-48
2023/02/28 09:44:08;;;;;;;12.18;6.53;;;3.60;89.00;;;;;;4967104;28;20034;-46
2023/02/28 09:47:18;;;;;;;8.63;5.85;;;3.60;88.90;;;;;;4969172;28;20062;-51
2023/02/28 09:50:13;;;;;;;7.03;5.50;;;3.60;87.20;;;;;;4959183;28;20724;-45
2023/02/28 09:53:03;;;;;;;6.40;4.85;;;3.60;87.20;;;;;;4955484;28;20087;-44
2023/02/28 09:55:54;;;;;;;6.45;4.63;;;3.80;87.10;;;;;;4952384;29;20043;-52
2023/02/28 09:58:51;;;;;;;12.93;5.28;;;3.90;85.10;;;;;;4964774;28;20491;-48
2023/02/28 10:02:03;;;;;;;5.78;4.30;;;3.90;84.40;;;;;;4969689;28;20118;-50
2023/02/28 10:04:59;;;;;;;7.85;4.97;;;3.90;83.40;;;;;;4978273;28;20014;-52
2023/02/28 10:07:58;;;;;;;5.88;4.60;;;3.80;83.90;;;;;;4964292;28;20541;-49
2023/02/28 10:10:49;;;;;;;6.55;4.43;;;3.70;83.30;;;;;;4972379;28;20082;-50
2023/02/28 10:14:00;;;;;;;7.35;4.65;;;4.00;83.70;;;;;;4971899;28;20054;-50
2023/02/28 10:17:10;;;;;;;7.72;5.50;;;4.10;83.30;;;;;;4970939;28;20042;-52
2023/02/28 10:20:07;;;;;;;7.93;4.45;;;4.30;82.90;;;;;;4971457;28;20029;-48
2023/02/28 10:23:16;;;;;;;8.07;5.25;;;4.40;82.60;;;;;;4971129;28;20050;-47
2023/02/28 10:26:15;;;;;;;8.07;5.63;;;4.40;82.70;;;;;;4970732;28;20042;-48
2023/02/28 10:29:02;;;;;;;6.22;5.30;;;4.30;83.40;;;;;;4959478;28;20019;-50
2023/02/28 10:31:48;;;;;;;9.65;5.95;;;4.30;83.30;;;;;;4972387;28;20113;-48
2023/02/28 10:34:34;;;;;;;10.52;6.13;;;4.20;84.00;;;;;;4972150;28;20035;-49
2023/02/28 10:37:21;;;;;;;10.15;6.03;;;4.40;83.80;;;;;;4970375;28;20035;-49
2023/02/28 10:40:24;;;;;;;11.88;6.20;;;4.30;83.90;;;;;;4972158;28;20031;-51
2023/02/28 10:43:13;;;;;;;9.43;5.70;;;4.30;84.00;;;;;;4971462;28;20154;-49
2023/02/28 10:46:08;;;;;;;7.93;6.43;;;4.20;84.70;;;;;;4970310;28;20031;-53
2023/02/28 10:49:05;;;;;;;9.90;7.45;;;4.30;84.60;;;;;;4971931;28;20023;-51
2023/02/28 10:51:57;;;;;;;8.45;5.97;;;4.30;84.50;;;;;;4972038;28;20019;-51
2023/02/28 10:54:42;;;;;;;10.68;6.45;;;4.30;84.50;;;;;;4971763;28;20042;-50
2023/02/28 10:57:30;;;;;;;9.38;6.53;;;4.30;84.60;;;;;;4971715;28;20026;-50
2023/02/28 11:00:22;;;;;;;8.38;5.70;;;4.40;84.60;;;;;;4971874;28;20065;-50
2023/02/28 11:03:32;;;;;;;9.00;5.75;;;4.40;84.90;;;;;;4975725;28;20038;-50
2023/02/28 11:06:31;;;;;;;6.68;5.97;;;4.50;83.80;;;;;;4975819;28;20037;-50
2023/02/28 11:09:25;;;;;;;7.10;6.03;;;4.40;83.70;;;;;;4975577;28;20030;-48
2023/02/28 11:12:33;;;;;;;7.13;6.00;;;4.40;84.50;;;;;;4975925;28;20026;-51
2023/02/28 11:15:22;;;;;;;7.93;6.13;;;4.60;84.40;;;;;;4976561;28;20030;-51
2023/02/28 11:18:33;;;;;;;10.32;6.90;;;4.70;83.40;;;;;;4974257;28;20058;-49
2023/02/28 11:21:27;;;;;;;10.15;6.82;;;4.70;83.20;;;;;;4975850;28;20172;-50
2023/02/28 11:24:41;;;;;;;14.82;6.78;;;4.80;83.00;;;;;;4975830;28;20114;-47
2023/02/28 11:27:30;;;;;;;10.30;7.10;;;4.60;83.00;;;;;;4959189;28;20023;-51
2023/02/28 11:30:26;;;;;;;8.88;6.97;;;4.70;83.50;;;;;;4975041;28;20026;-52
2023/02/28 11:33:50;;;;;;;9.35;6.85;;;4.80;83.90;;;;;;4974770;28;20113;-52
2023/02/28 11:36:44;;;;;;;8.30;6.78;;;5.00;84.30;;;;;;4953351;28;20035;-52
2023/02/28 11:39:31;;;;;;;10.90;6.40;;;5.10;83.40;;;;;;4975274;28;20035;-51
2023/02/28 11:42:17;;;;;;;9.60;6.60;;;5.30;84.60;;;;;;4955624;29;20070;-52
2023/02/28 11:45:27;;;;;;;9.25;6.93;;;5.40;83.60;;;;;;4957226;28;20026;-55
2023/02/28 11:48:31;;;;;;;8.98;6.35;;;5.40;85.90;;;;;;4973297;28;20033;-52
2023/02/28 11:51:27;;;;;;;7.88;6.13;;;5.40;84.60;;;;;;4973786;28;20077;-53
2023/02/28 11:54:54;;;;;;;8.10;6.43;;;5.50;85.90;;;;;;4975403;28;20055;-49
2023/02/28 11:58:07;;;;;;;10.38;6.80;;;5.60;87.30;;;;;;4955071;29;20038;-52
2023/02/28 12:01:04;;;;;;;9.80;7.07;;;5.70;84.20;;;;;;4971756;28;20035;-54
2023/02/28 12:04:14;;;;;;;9.93;7.00;;;5.70;85.70;;;;;;4973873;28;20027;-55
2023/02/28 12:07:30;;;;;;;10.68;7.50;;;5.50;82.70;;;;;;4962168;28;20057;-57
2023/02/28 12:10:25;;;;;;;9.60;7.07;;;5.10;83.70;;;;;;4974341;28;20085;-53
2023/02/28 12:13:49;;;;;;;10.68;7.50;;;4.90;82.80;;;;;;4973484;28;20042;-49
2023/02/28 12:16:54;;;;;;;8.95;7.20;;;4.80;84.30;;;;;;4973452;28;20027;-50
2023/02/28 12:19:46;;;;;;;9.82;7.50;;;4.80;83.70;;;;;;4974351;28;20030;-50
2023/02/28 12:22:41;;;;;;;11.23;7.72;;;4.60;84.70;;;;;;4974514;28;20041;-49
2023/02/28 12:25:40;;;;;;;14.40;7.90;;;4.60;84.40;;;;;;4973474;28;20038;-48
2023/02/28 12:28:33;;;;;;;9.48;6.82;;;4.60;85.00;;;;;;4973233;28;20039;-54
2023/02/28 12:31:33;;;;;;;11.07;7.70;;;4.80;84.90;;;;;;4974375;28;20089;-51
2023/02/28 12:34:33;;;;;;;11.02;7.75;;;4.90;84.30;;;;;;4954549;29;20031;-52
2023/02/28 12:37:28;;;;;;;14.50;7.60;;;4.90;84.50;;;;;;4964118;28;20118;-52
2023/02/28 12:40:27;;;;;;;9.20;7.15;;;4.90;83.00;;;;;;4972550;28;20120;-49
2023/02/28 12:43:15;;;;;;;12.35;7.35;;;5.00;83.70;;;;;;4973673;28;20034;-49
2023/02/28 12:46:12;;;;;;;12.63;7.70;;;5.10;83.40;;;;;;4973551;28;20030;-54
2023/02/28 12:49:05;;;;;;;11.68;7.15;;;5.50;92.40;;;;;;4973773;28;20444;-58
2023/02/28 12:51:52;;;;;;;14.77;9.10;;;6.00;93.20;;;;;;4973317;28;20085;-58
2023/02/28 12:54:57;;;;;;;10.55;6.97;;;6.50;88.00;;;;;;4973333;28;20078;-55
2023/02/28 12:58:05;;;;;;;8.93;7.43;;;6.70;89.60;;;;;;4954254;28;20038;-56
2023/02/28 13:01:19;;;;;;;11.02;6.85;;;6.90;87.60;;;;;;4963462;28;20495;-58
2023/02/28 13:04:14;;;;;;;16.65;7.82;;;7.00;87.30;;;;;;4973163;28;20126;-59
2023/02/28 13:07:25;;;;;;;10.63;6.88;;;6.90;86.10;;;;;;4972945;28;20487;-56
2023/02/28 13:10:11;;;;;;;13.93;8.05;;;7.10;85.70;;;;;;4973531;28;20035;-56
2023/02/28 13:13:02;;;;;;;18.70;11.20;;;7.20;83.90;;;;;;4973206;28;20432;-57
2023/02/28 13:16:01;;;;;;;11.68;8.00;;;7.30;84.60;;;;;;4973205;28;20031;-55
2023/02/28 13:18:48;;;;;;;10.50;7.50;;;7.50;85.50;;;;;;4972261;28;20039;-60
2023/02/28 13:21:42;;;;;;;10.55;7.68;;;7.40;81.20;;;;;;4971834;28;20050;-61
2023/02/28 13:24:43;;;;;;;12.95;8.07;;;7.50;83.00;;;;;;4972564;28;20031;-60
2023/02/28 13:27:56;;;;;;;14.32;7.78;;;7.60;87.60;;;;;;4953558;29;20039;-51
2023/02/28 13:30:59;;;;;;;11.57;7.68;;;7.90;82.00;;;;;;4962686;28;20709;-66
2023/02/28 13:33:54;;;;;;;12.15;8.30;;;7.30;78.10;;;;;;4972594;28;20035;-66
2023/02/28 13:36:40;;;;;;;10.68;8.35;;;6.90;78.70;;;;;;4972342;28;20372;-62
2023/02/28 13:39:35;;;;;;;14.85;10.52;;;6.80;79.30;;;;;;4973459;28;20034;-55
2023/02/28 13:42:26;;;;;;;11.30;7.68;;;6.90;79.90;;;;;;4972118;28;20045;-54
2023/02/28 13:45:12;;;;;;;26.60;11.75;;;7.20;85.20;;;;;;4972219;28;20089;-54
2023/02/28 13:48:01;;;;;;;11.82;8.68;;;7.30;79.20;;;;;;4961245;28;20395;-50
2023/02/28 13:50:47;;;;;;;12.02;8.15;;;7.10;79.00;;;;;;4972711;28;20471;-51
2023/02/28 13:53:46;;;;;;;11.70;8.05;;;6.90;79.60;;;;;;4972334;28;20070;-50
2023/02/28 13:56:44;;;;;;;12.20;8.18;;;6.90;79.60;;;;;;4973399;28;20027;-57
2023/02/28 14:00:08;;;;;;;11.20;8.23;;;7.20;85.00;;;;;;4971610;28;20019;-58
2023/02/28 14:03:06;;;;;;;11.38;8.23;;;7.80;89.10;;;;;;4971904;28;20031;-59
2023/02/28 14:06:23;;;;;;;18.58;11.10;;;8.20;83.10;;;;;;4972888;28;20031;-56
2023/02/28 14:09:21;;;;;;;;;;;8.30;84.00;;;;;;4972683;28;20399;-57
2023/02/28 14:12:45;;;;;;;10.05;8.25;;;8.70;83.80;;;;;;4972022;28;19912;-55
2023/02/28 14:15:36;;;;;;;16.45;11.95;;;8.40;79.20;;;;;;4957960;28;20026;-57
2023/02/28 14:18:30;;;;;;;10.77;8.10;;;8.30;79.20;;;;;;4972558;28;20058;-60
2023/02/28 14:21:33;;;;;;;10.82;8.48;;;8.50;83.00;;;;;;4973335;28;20023;-55
2023/02/28 14:24:51;;;;;;;9.82;7.70;;;8.90;80.40;;;;;;4972311;28;20400;-58
2023/02/28 14:28:15;;;;;;;9.75;7.75;;;9.20;78.70;;;;;;4952254;29;20034;-57
2023/02/28 14:31:19;;;;;;;9.10;7.18;;;8.80;77.10;;;;;;4953418;28;20031;-59
2023/02/28 14:34:40;;;;;;;8.20;6.80;;;9.00;78.60;;;;;;4961238;28;20022;-57
2023/02/28 14:37:30;;;;;;;10.13;7.53;;;9.10;77.10;;;;;;4976421;28;20053;-66
2023/02/28 14:40:27;;;;;;;10.05;6.85;;;9.40;77.80;;;;;;4976171;28;20042;-55
2023/02/28 14:43:26;;;;;;;10.43;6.47;;;9.70;76.30;;;;;;4975841;28;20053;-51
2023/02/28 14:46:13;;;;;;;10.57;6.70;;;10.00;75.60;;;;;;4979597;28;20483;-57
2023/02/28 14:49:00;;;;;;;16.40;6.90;;;10.00;76.10;;;;;;4991858;28;20054;-54
2023/02/28 14:51:47;;;;;;;13.07;7.20;;;10.20;75.10;;;;;;5002894;28;20066;-59
2023/02/28 14:54:33;;;;;;;8.50;6.90;;;10.20;72.40;;;;;;4981495;28;20097;-59
2023/02/28 14:57:25;;;;;;;12.50;7.93;;;10.30;72.50;;;;;;4976468;28;20027;-58
2023/02/28 15:00:21;;;;;;;9.82;8.07;;;10.60;75.00;;;;;;4977218;28;20034;-61
2023/02/28 15:03:20;;;;;;;8.90;7.05;;;11.10;72.70;;;;;;4976063;28;20108;-59
2023/02/28 15:06:14;;;;;;;10.15;6.80;;;11.60;73.40;;;;;;4975009;28;20134;-59